Flynn, Texas
Current Conditions -  °F | °C
As of 5:55 PM on Sunday 21 Dec 2014 (Local Time) from KCFD Reporting Station
Overcast Overcast  
Wind Chill: 54°   Ceiling: 2100
Heat Index: 54°   Visibility: 10mi
Dew Point: 49°   Wind: 0mph
Humidity: 85%   Direction: NA
Pressure: 29.92"   Gusts: NA
Location:  31.15°N, 96.12°W
Report Text: KCFD 212355Z AUTO 00000KT 10SM OVC021 12/10 A2992 RMK AO2 T01200095 10125 20110
Loading
Personal Weather Stations






























Interactive Weather Map New forecast layout! Learn more

10-Day Weather Forecast

Advertisements
Track Severe Weather on mobile